Time;durP1;ratioP1;P1;durP2;ratioP2;P2;SDS_P1;SDS_P2;PMS_P1;PMS_P2;Temp;Humidity;BMP_temperature;BMP_pressure;BME280_temperature;BME280_humidity;BME280_pressure;Samples;Min_cycle;Max_cycle;Signal;HPM_P1;HPM_P2
2024/01/24 00:02:14;;;;;;;6.88;4.20;;;3.70;99.90;;;;;;4968884;28;20054;-59
2024/01/24 00:04:41;;;;;;;11.73;5.97;;;3.60;99.90;;;;;;4980762;28;20051;-58
2024/01/24 00:07:07;;;;;;;9.30;5.32;;;3.70;99.90;;;;;;4978894;28;20745;-58
2024/01/24 00:09:34;;;;;;;9.40;5.40;;;3.70;99.90;;;;;;4980845;28;20042;-58
2024/01/24 00:12:01;;;;;;;9.02;5.57;;;3.70;99.90;;;;;;4973464;28;20138;-58
2024/01/24 00:14:28;;;;;;;12.57;5.72;;;3.70;99.90;;;;;;4982995;28;20051;-59
2024/01/24 00:16:55;;;;;;;7.32;5.20;;;3.70;99.90;;;;;;4982191;28;20042;-58
2024/01/24 00:19:22;;;;;;;9.07;5.63;;;3.70;99.90;;;;;;4982962;28;20045;-58
2024/01/24 00:21:49;;;;;;;10.00;5.55;;;3.70;99.90;;;;;;4981724;28;20494;-58
2024/01/24 00:24:16;;;;;;;9.30;4.78;;;3.70;99.90;;;;;;4980787;28;20089;-58
2024/01/24 00:26:43;;;;;;;8.20;4.50;;;3.70;99.90;;;;;;4976049;28;20042;-58
2024/01/24 00:29:10;;;;;;;6.10;3.28;;;3.70;99.90;;;;;;4972411;28;20054;-58
2024/01/24 00:31:38;;;;;;;7.45;4.18;;;3.80;99.90;;;;;;4983369;28;20046;-57
2024/01/24 00:34:04;;;;;;;7.03;3.88;;;3.80;99.90;;;;;;4956077;28;20058;-57
2024/01/24 00:36:31;;;;;;;6.38;4.00;;;3.80;99.90;;;;;;4973125;28;20050;-55
2024/01/24 00:38:58;;;;;;;9.23;3.90;;;3.90;99.90;;;;;;4981025;28;20447;-54
2024/01/24 00:41:25;;;;;;;6.55;3.72;;;3.90;99.90;;;;;;4981929;28;20034;-54
2024/01/24 00:43:52;;;;;;;7.72;3.72;;;3.90;99.90;;;;;;4975018;28;20035;-58
2024/01/24 00:46:19;;;;;;;6.63;3.20;;;4.00;99.90;;;;;;4975168;28;20041;-58
2024/01/24 00:48:45;;;;;;;9.18;3.90;;;3.90;99.90;;;;;;4984845;28;20395;-58
2024/01/24 00:51:12;;;;;;;6.10;4.00;;;3.90;99.90;;;;;;4984610;28;20115;-56
2024/01/24 00:53:40;;;;;;;8.35;4.25;;;3.90;99.90;;;;;;4982957;28;20085;-57
2024/01/24 00:56:07;;;;;;;5.85;3.83;;;3.90;99.90;;;;;;4971029;28;20161;-59
2024/01/24 00:58:34;;;;;;;9.38;4.10;;;3.80;99.90;;;;;;4974598;28;20046;-56
2024/01/24 01:01:01;;;;;;;14.75;4.97;;;3.70;99.90;;;;;;4973591;28;20133;-59
2024/01/24 01:03:28;;;;;;;9.00;4.38;;;3.70;99.90;;;;;;4986823;28;20043;-60
2024/01/24 01:05:54;;;;;;;10.48;4.82;;;3.70;99.90;;;;;;4977129;28;20042;-57
2024/01/24 01:08:21;;;;;;;8.00;4.57;;;3.70;99.90;;;;;;4986164;28;20050;-57
2024/01/24 01:10:48;;;;;;;7.90;5.00;;;3.70;99.90;;;;;;4983112;28;20038;-60
2024/01/24 01:13:15;;;;;;;11.73;5.10;;;3.70;99.90;;;;;;4982134;28;20055;-56
2024/01/24 01:15:41;;;;;;;6.50;4.32;;;3.70;99.90;;;;;;4981372;28;20125;-59
2024/01/24 01:18:09;;;;;;;8.63;4.80;;;3.70;99.90;;;;;;4966900;28;20102;-58
2024/01/24 01:20:35;;;;;;;7.78;4.30;;;3.70;99.90;;;;;;4993256;28;20518;-56
2024/01/24 01:23:03;;;;;;;7.97;3.88;;;3.70;99.90;;;;;;4991195;28;20040;-59
2024/01/24 01:25:30;;;;;;;7.65;4.35;;;3.70;99.90;;;;;;4987691;28;20038;-59
2024/01/24 01:27:57;;;;;;;8.18;4.43;;;3.80;99.90;;;;;;4970833;28;20042;-59
2024/01/24 01:30:24;;;;;;;10.27;4.20;;;3.90;99.90;;;;;;4973128;28;20130;-59
2024/01/24 01:32:50;;;;;;;6.32;3.92;;;3.90;99.90;;;;;;4965032;28;20047;-59
2024/01/24 01:35:17;;;;;;;7.13;4.13;;;4.00;99.90;;;;;;4972993;28;20467;-59
2024/01/24 01:37:44;;;;;;;6.30;2.85;;;4.00;99.90;;;;;;4979003;28;20045;-59
2024/01/24 01:40:11;;;;;;;6.60;2.85;;;4.00;99.90;;;;;;4979749;28;20051;-59
2024/01/24 01:42:45;;;;;;;6.88;3.67;;;4.00;99.90;;;;;;4978004;28;20034;-59
2024/01/24 01:45:12;;;;;;;7.93;3.97;;;4.00;99.90;;;;;;4992934;28;20108;-59
2024/01/24 01:47:39;;;;;;;5.80;3.80;;;4.00;99.90;;;;;;4996045;28;20125;-59
2024/01/24 01:50:10;;;;;;;5.72;3.72;;;4.00;99.90;;;;;;4975255;28;20050;-59
2024/01/24 01:52:38;;;;;;;6.30;3.83;;;4.00;99.90;;;;;;4975925;28;20049;-60
2024/01/24 01:55:06;;;;;;;5.15;3.50;;;4.00;99.90;;;;;;4975533;28;20484;-60
2024/01/24 01:57:34;;;;;;;7.40;3.88;;;4.00;99.90;;;;;;4984510;28;20035;-60
2024/01/24 02:00:00;;;;;;;;;;;4.00;99.90;;;;;;4976324;28;20075;-60
2024/01/24 02:02:30;;;;;;;7.65;3.28;;;4.00;99.90;;;;;;4976404;28;19926;-57
2024/01/24 02:04:57;;;;;;;5.82;3.63;;;4.10;99.90;;;;;;4987920;28;20042;-57
2024/01/24 02:07:24;;;;;;;8.15;3.65;;;4.10;99.90;;;;;;4984136;28;20042;-58
2024/01/24 02:09:52;;;;;;;3.65;2.15;;;4.10;99.90;;;;;;4983485;28;20053;-57
2024/01/24 02:12:19;;;;;;;5.22;2.78;;;4.10;99.90;;;;;;4986570;28;20047;-60
2024/01/24 02:14:46;;;;;;;4.32;2.97;;;4.20;99.90;;;;;;4986800;28;20047;-59
2024/01/24 02:17:13;;;;;;;6.07;2.65;;;4.10;99.90;;;;;;4995357;28;20403;-59
2024/01/24 02:19:40;;;;;;;4.53;2.67;;;4.20;99.90;;;;;;4989863;28;20479;-60
2024/01/24 02:22:07;;;;;;;5.82;2.90;;;4.20;99.90;;;;;;4990134;28;20046;-60
2024/01/24 02:24:33;;;;;;;4.15;2.40;;;4.20;99.90;;;;;;4995415;28;20049;-57
2024/01/24 02:27:00;;;;;;;2.28;1.95;;;4.20;99.90;;;;;;4987714;28;20043;-57
2024/01/24 02:29:27;;;;;;;5.15;2.60;;;4.30;99.90;;;;;;4973490;28;20035;-58
2024/01/24 02:31:55;;;;;;;3.08;1.73;;;4.30;99.90;;;;;;4978122;28;20125;-60
2024/01/24 02:34:22;;;;;;;3.83;2.15;;;4.30;99.90;;;;;;4993420;28;20047;-58
2024/01/24 02:36:49;;;;;;;4.72;2.20;;;4.30;99.90;;;;;;4982920;28;20035;-60
2024/01/24 02:39:17;;;;;;;3.17;2.00;;;4.30;99.90;;;;;;4965245;28;20420;-59
2024/01/24 02:41:45;;;;;;;4.00;2.20;;;4.30;99.90;;;;;;4975615;28;20031;-59
2024/01/24 02:44:11;;;;;;;4.78;2.30;;;4.30;99.90;;;;;;4964819;28;20455;-60
2024/01/24 02:46:38;;;;;;;4.20;2.47;;;4.20;99.90;;;;;;4971894;28;20166;-60
2024/01/24 02:49:05;;;;;;;3.45;2.17;;;4.20;99.90;;;;;;4988559;28;20053;-60
2024/01/24 02:51:32;;;;;;;2.90;2.25;;;4.20;99.90;;;;;;4994957;28;20047;-58
2024/01/24 02:53:59;;;;;;;3.50;2.20;;;4.20;99.90;;;;;;4985067;28;20046;-60
2024/01/24 02:56:26;;;;;;;3.75;2.08;;;4.20;99.90;;;;;;4967073;28;20148;-59
2024/01/24 02:58:53;;;;;;;4.93;2.15;;;4.20;99.90;;;;;;4978138;28;20035;-60
2024/01/24 03:01:19;;;;;;;2.53;1.50;;;4.30;99.90;;;;;;4984505;28;20046;-59
2024/01/24 03:03:46;;;;;;;3.85;2.10;;;4.30;99.90;;;;;;4982942;28;20483;-60
2024/01/24 03:06:14;;;;;;;3.33;1.67;;;4.30;99.90;;;;;;4974946;28;20053;-59
2024/01/24 03:08:48;;;;;;;4.03;1.75;;;4.30;99.90;;;;;;4995020;28;20136;-60
2024/01/24 03:11:16;;;;;;;6.65;1.98;;;4.30;99.90;;;;;;4977120;28;20141;-59
2024/01/24 03:13:44;;;;;;;2.65;1.77;;;4.30;99.90;;;;;;4985813;28;20043;-59
2024/01/24 03:16:10;;;;;;;4.32;2.25;;;4.30;99.90;;;;;;4993828;28;20430;-60
2024/01/24 03:18:38;;;;;;;3.42;2.10;;;4.30;99.90;;;;;;4987760;28;20463;-59
2024/01/24 03:21:08;;;;;;;3.72;2.15;;;4.20;99.90;;;;;;4974421;28;20048;-58
2024/01/24 03:23:38;;;;;;;2.10;1.90;;;4.20;99.90;;;;;;4989612;28;20399;-59
2024/01/24 03:26:06;;;;;;;4.05;1.90;;;4.20;99.90;;;;;;4982695;28;20050;-59
2024/01/24 03:28:34;;;;;;;3.38;2.00;;;4.20;99.90;;;;;;4987351;28;20051;-59
2024/01/24 03:31:02;;;;;;;2.83;2.05;;;4.30;99.90;;;;;;4985596;28;20045;-59
2024/01/24 03:33:28;;;;;;;4.47;2.22;;;4.30;99.90;;;;;;4985338;28;20051;-60
2024/01/24 03:35:55;;;;;;;3.17;2.05;;;4.30;99.90;;;;;;4987879;28;20035;-60
2024/01/24 03:38:22;;;;;;;4.60;2.65;;;4.20;99.90;;;;;;4961350;28;20066;-59
2024/01/24 03:40:50;;;;;;;4.25;2.25;;;4.20;99.90;;;;;;4993907;28;20119;-59
2024/01/24 03:43:16;;;;;;;5.13;2.42;;;4.20;99.90;;;;;;4976777;28;20042;-59
2024/01/24 03:45:43;;;;;;;3.20;2.38;;;4.20;99.90;;;;;;4991089;28;20046;-60
2024/01/24 03:48:10;;;;;;;4.13;2.33;;;4.20;99.90;;;;;;4972057;28;20108;-60
2024/01/24 03:50:38;;;;;;;4.90;2.20;;;4.20;99.90;;;;;;4993601;28;20038;-59
2024/01/24 03:53:05;;;;;;;4.18;2.42;;;4.30;99.90;;;;;;4993069;28;20050;-60
2024/01/24 03:55:32;;;;;;;2.10;1.60;;;4.30;99.90;;;;;;4988072;28;20046;-59
2024/01/24 03:57:58;;;;;;;3.55;2.40;;;4.30;99.90;;;;;;4975123;28;20054;-59
2024/01/24 04:00:27;;;;;;;8.68;2.70;;;4.30;99.90;;;;;;4975105;28;20047;-59
2024/01/24 04:02:54;;;;;;;3.97;2.22;;;4.30;99.90;;;;;;4981548;28;20034;-60
2024/01/24 04:05:21;;;;;;;3.25;1.90;;;4.30;99.90;;;;;;4985038;28;20042;-59
2024/01/24 04:07:47;;;;;;;2.58;2.05;;;4.40;99.90;;;;;;4987558;28;20047;-59
2024/01/24 04:10:15;;;;;;;4.60;2.30;;;4.40;99.90;;;;;;4976712;28;20051;-60
2024/01/24 04:12:42;;;;;;;3.25;2.50;;;4.30;99.90;;;;;;4973800;28;20519;-59
2024/01/24 04:15:09;;;;;;;5.35;2.90;;;4.30;99.90;;;;;;4989034;28;20406;-59
2024/01/24 04:17:36;;;;;;;4.05;2.47;;;4.30;99.90;;;;;;4993375;28;20034;-60
2024/01/24 04:20:04;;;;;;;6.10;3.00;;;4.30;99.90;;;;;;4964569;28;20066;-59
2024/01/24 04:22:30;;;;;;;3.15;2.10;;;4.30;99.90;;;;;;4982768;28;20503;-60
2024/01/24 04:24:57;;;;;;;4.28;2.40;;;4.30;99.90;;;;;;4986647;28;20108;-59
2024/01/24 04:27:24;;;;;;;6.13;2.45;;;4.30;99.90;;;;;;4981942;28;20042;-58
2024/01/24 04:29:51;;;;;;;4.20;2.38;;;4.30;99.90;;;;;;4972823;28;20399;-59
2024/01/24 04:32:18;;;;;;;5.80;2.65;;;4.30;99.90;;;;;;4992404;28;20042;-60
2024/01/24 04:34:45;;;;;;;3.47;2.15;;;4.20;99.90;;;;;;4984754;28;20046;-59
2024/01/24 04:37:12;;;;;;;;;;;4.20;99.90;;;;;;4977445;28;20051;-60
2024/01/24 04:39:39;;;;;;;3.05;1.77;;;4.20;99.90;;;;;;4960805;28;19928;-60
2024/01/24 04:42:06;;;;;;;3.97;2.10;;;4.20;99.90;;;;;;4992899;28;20391;-59
2024/01/24 04:44:42;;;;;;;3.45;2.17;;;4.20;99.90;;;;;;4986136;28;20038;-59
2024/01/24 04:47:09;;;;;;;4.18;2.38;;;4.30;99.90;;;;;;4958939;28;20146;-60
2024/01/24 04:49:36;;;;;;;4.63;2.50;;;4.30;99.90;;;;;;4977660;28;20404;-59
2024/01/24 04:52:12;;;;;;;4.45;2.50;;;4.30;99.90;;;;;;4988635;28;20078;-60
2024/01/24 04:54:40;;;;;;;3.50;1.83;;;4.30;99.90;;;;;;4984788;28;20042;-58
2024/01/24 04:57:07;;;;;;;2.50;2.08;;;4.20;99.90;;;;;;4977037;28;20439;-57
2024/01/24 04:59:34;;;;;;;4.63;2.28;;;4.20;99.90;;;;;;4973423;28;20047;-59
2024/01/24 05:02:15;;;;;;;3.15;2.13;;;4.20;99.90;;;;;;4978863;28;20446;-59
2024/01/24 05:04:42;;;;;;;;;;;4.10;99.90;;;;;;4973068;28;20035;-59
2024/01/24 05:07:09;;;;;;;2.45;2.00;;;4.10;99.90;;;;;;4979841;28;19925;-58
2024/01/24 05:09:36;;;;;;;4.53;2.80;;;4.00;99.90;;;;;;4975907;28;20499;-59
2024/01/24 05:12:03;;;;;;;3.42;1.95;;;4.00;99.90;;;;;;4968657;28;20538;-59
2024/01/24 05:14:30;;;;;;;5.45;2.45;;;4.00;99.90;;;;;;4973906;28;20471;-59
2024/01/24 05:16:57;;;;;;;5.18;2.67;;;4.00;99.90;;;;;;4976804;28;20057;-59
2024/01/24 05:19:24;;;;;;;4.13;2.13;;;4.00;99.90;;;;;;4963054;28;20066;-59
2024/01/24 05:21:51;;;;;;;3.88;2.53;;;3.90;99.90;;;;;;4989277;28;20042;-59
2024/01/24 05:24:18;;;;;;;4.47;2.70;;;3.90;99.90;;;;;;4975918;28;20432;-59
2024/01/24 05:26:46;;;;;;;7.05;2.95;;;3.90;99.90;;;;;;4969638;28;20050;-59
2024/01/24 05:29:13;;;;;;;5.97;3.00;;;3.90;99.90;;;;;;4960425;28;20043;-60
2024/01/24 05:31:40;;;;;;;6.90;2.90;;;3.90;99.90;;;;;;4966501;28;20039;-59
2024/01/24 05:34:08;;;;;;;6.10;3.25;;;4.00;99.90;;;;;;4969630;28;20073;-58
2024/01/24 05:36:35;;;;;;;4.35;2.70;;;4.00;99.90;;;;;;4972012;28;20123;-59
2024/01/24 05:39:06;;;;;;;8.65;2.75;;;4.10;99.90;;;;;;4971858;28;20047;-58
2024/01/24 05:41:35;;;;;;;3.80;2.40;;;4.10;99.90;;;;;;4971174;28;20039;-59
2024/01/24 05:44:02;;;;;;;6.60;3.25;;;4.10;99.90;;;;;;4967406;28;20232;-59
2024/01/24 05:46:28;;;;;;;6.63;3.17;;;4.10;99.90;;;;;;4979144;28;20045;-59
2024/01/24 05:48:56;;;;;;;4.25;2.45;;;4.10;99.90;;;;;;4967744;28;20046;-58
2024/01/24 05:51:23;;;;;;;5.28;2.92;;;4.10;99.90;;;;;;4983488;28;20470;-59
2024/01/24 05:53:50;;;;;;;7.63;3.33;;;4.10;99.90;;;;;;4975561;28;20034;-59
2024/01/24 05:56:17;;;;;;;8.60;3.47;;;4.00;99.90;;;;;;4980699;28;20106;-59
2024/01/24 05:58:43;;;;;;;9.70;5.03;;;4.00;99.90;;;;;;4963199;28;20039;-56
2024/01/24 06:01:10;;;;;;;8.32;3.88;;;3.90;99.90;;;;;;4972709;28;20511;-59
2024/01/24 06:03:37;;;;;;;11.00;3.80;;;3.90;99.90;;;;;;4975920;28;20134;-58
2024/01/24 06:06:05;;;;;;;7.30;4.22;;;3.90;99.90;;;;;;4980106;28;20066;-59
2024/01/24 06:08:32;;;;;;;6.57;3.08;;;3.90;99.90;;;;;;4979946;28;20043;-58
2024/01/24 06:10:59;;;;;;;5.13;2.67;;;4.00;99.90;;;;;;4972129;28;20386;-59
2024/01/24 06:13:27;;;;;;;4.68;2.80;;;3.90;99.90;;;;;;4974743;28;20067;-59
2024/01/24 06:15:54;;;;;;;6.97;3.08;;;4.00;99.90;;;;;;4972415;28;20046;-59
2024/01/24 06:18:21;;;;;;;11.65;3.75;;;4.00;99.90;;;;;;4965102;28;20051;-58
2024/01/24 06:20:48;;;;;;;7.10;3.92;;;4.00;99.90;;;;;;4972594;28;20050;-59
2024/01/24 06:23:15;;;;;;;7.85;3.70;;;4.00;99.90;;;;;;4983854;28;20051;-57
2024/01/24 06:25:42;;;;;;;8.07;3.78;;;4.00;99.90;;;;;;4979962;28;20199;-59
2024/01/24 06:28:09;;;;;;;8.90;3.28;;;4.00;99.90;;;;;;4972367;28;20054;-57
2024/01/24 06:30:36;;;;;;;5.60;3.25;;;4.00;99.90;;;;;;4967877;28;20062;-58
2024/01/24 06:33:03;;;;;;;7.82;3.45;;;4.00;99.90;;;;;;4972503;28;20153;-58
2024/01/24 06:35:31;;;;;;;7.05;3.63;;;4.00;99.90;;;;;;4972131;28;20058;-59
2024/01/24 06:37:58;;;;;;;12.13;3.75;;;4.00;99.90;;;;;;4969935;28;20488;-59
2024/01/24 06:40:25;;;;;;;5.22;3.45;;;3.90;99.90;;;;;;4972175;28;20043;-58
2024/01/24 06:42:52;;;;;;;7.80;3.78;;;3.90;99.90;;;;;;4971502;28;20042;-59
2024/01/24 06:45:19;;;;;;;9.95;4.28;;;3.90;99.90;;;;;;4972647;28;20431;-57
2024/01/24 06:47:47;;;;;;;6.45;4.15;;;3.90;99.90;;;;;;4969888;28;20495;-59
2024/01/24 06:50:16;;;;;;;9.07;4.22;;;3.80;99.90;;;;;;4972378;28;20054;-59
2024/01/24 06:52:43;;;;;;;24.33;11.43;;;3.80;99.90;;;;;;4971907;28;20050;-59
2024/01/24 06:55:10;;;;;;;8.35;4.40;;;3.80;99.90;;;;;;4970877;28;20046;-59
2024/01/24 06:57:37;;;;;;;8.23;4.43;;;3.80;99.90;;;;;;4971030;28;20045;-59
2024/01/24 07:00:05;;;;;;;10.35;4.35;;;3.80;99.90;;;;;;4972158;28;20055;-59
2024/01/24 07:02:32;;;;;;;8.82;5.07;;;3.80;99.90;;;;;;4969867;28;20137;-59
2024/01/24 07:04:59;;;;;;;7.38;4.90;;;3.90;99.90;;;;;;4971103;28;20047;-59
2024/01/24 07:07:26;;;;;;;9.70;5.15;;;3.90;99.90;;;;;;4970644;28;20046;-58
2024/01/24 07:09:53;;;;;;;13.68;5.70;;;3.90;99.90;;;;;;4969623;28;20050;-59
2024/01/24 07:12:20;;;;;;;9.65;5.65;;;4.00;99.90;;;;;;4981661;28;20057;-59
2024/01/24 07:14:48;;;;;;;11.02;5.53;;;4.00;99.90;;;;;;4974824;28;20522;-59
2024/01/24 07:17:18;;;;;;;10.80;5.00;;;3.90;99.90;;;;;;4994391;28;20049;-59
2024/01/24 07:19:45;;;;;;;12.55;5.75;;;4.00;99.90;;;;;;4981036;28;20433;-59
2024/01/24 07:22:12;;;;;;;12.55;6.72;;;4.00;99.90;;;;;;4983895;28;20534;-59
2024/01/24 07:24:43;;;;;;;15.82;5.47;;;4.00;99.90;;;;;;4982126;28;20043;-59
2024/01/24 07:27:10;;;;;;;14.70;7.43;;;4.00;99.90;;;;;;4975131;28;20499;-59
2024/01/24 07:29:36;;;;;;;7.30;4.78;;;4.00;99.90;;;;;;4970556;28;20039;-59
2024/01/24 07:32:03;;;;;;;8.88;5.75;;;4.00;99.90;;;;;;4987612;28;20487;-60
2024/01/24 07:34:31;;;;;;;;;;;4.10;99.90;;;;;;4977175;28;20050;-58
2024/01/24 07:36:57;;;;;;;9.65;6.13;;;4.10;99.90;;;;;;4970793;28;19957;-59
2024/01/24 07:39:25;;;;;;;11.70;6.45;;;4.10;99.90;;;;;;4990087;28;20051;-59
2024/01/24 07:41:52;;;;;;;8.63;5.82;;;4.20;99.90;;;;;;4992366;28;20129;-60
2024/01/24 07:44:19;;;;;;;10.30;5.35;;;4.20;99.90;;;;;;4974604;28;20480;-58
2024/01/24 07:46:46;;;;;;;11.23;6.18;;;4.20;99.90;;;;;;4971917;28;20042;-59
2024/01/24 07:49:13;;;;;;;12.52;7.03;;;4.20;99.90;;;;;;4977039;28;20053;-59
2024/01/24 07:51:41;;;;;;;13.60;6.78;;;4.30;99.90;;;;;;4986104;28;20042;-60
2024/01/24 07:54:09;;;;;;;12.95;6.07;;;4.30;99.90;;;;;;4987493;28;20109;-60
2024/01/24 07:56:35;;;;;;;10.60;5.25;;;4.30;99.90;;;;;;4990096;28;20054;-59
2024/01/24 07:59:04;;;;;;;;;;;4.40;99.90;;;;;;4967325;28;20053;-59
2024/01/24 08:01:31;;;;;;;9.30;5.20;;;4.40;99.90;;;;;;4981907;28;19925;-59
2024/01/24 08:04:00;;;;;;;;;;;4.30;99.90;;;;;;4971015;28;20130;-60
2024/01/24 08:06:28;;;;;;;10.55;5.55;;;4.40;99.90;;;;;;4993687;28;19965;-57
2024/01/24 08:08:55;;;;;;;14.68;6.78;;;4.40;99.90;;;;;;4993408;28;20050;-58
2024/01/24 08:11:23;;;;;;;16.30;8.02;;;4.50;99.90;;;;;;4983040;28;20474;-59
2024/01/24 08:13:50;;;;;;;19.23;9.57;;;4.50;99.90;;;;;;4990226;28;20038;-59
2024/01/24 08:16:18;;;;;;;14.95;7.07;;;4.50;99.90;;;;;;4988894;28;20050;-59
2024/01/24 08:18:45;;;;;;;15.23;8.98;;;4.60;99.90;;;;;;4982267;28;20062;-60
2024/01/24 08:21:13;;;;;;;12.00;5.82;;;4.60;99.90;;;;;;4965777;28;20117;-59
2024/01/24 08:23:40;;;;;;;16.70;7.82;;;4.60;99.90;;;;;;4989819;28;20323;-59
2024/01/24 08:26:17;;;;;;;10.13;6.25;;;4.70;99.90;;;;;;4987857;28;20070;-60
2024/01/24 08:28:43;;;;;;;10.80;5.82;;;4.80;99.90;;;;;;4991980;28;20442;-60
2024/01/24 08:31:11;;;;;;;11.93;6.43;;;4.80;99.90;;;;;;4955117;28;20039;-59
2024/01/24 08:33:38;;;;;;;17.33;9.45;;;4.90;99.90;;;;;;4973462;28;20039;-59
2024/01/24 08:36:05;;;;;;;17.38;8.15;;;4.90;99.90;;;;;;4976920;28;20126;-59
2024/01/24 08:38:32;;;;;;;10.63;6.72;;;4.70;99.90;;;;;;4976960;28;20049;-58
2024/01/24 08:40:59;;;;;;;15.90;7.65;;;4.80;99.90;;;;;;4989874;28;20104;-59
2024/01/24 08:43:25;;;;;;;15.10;5.97;;;4.70;99.90;;;;;;4984282;28;20125;-58
2024/01/24 08:45:52;;;;;;;8.10;4.30;;;4.80;99.90;;;;;;4985086;28;20039;-59
2024/01/24 08:48:21;;;;;;;10.20;6.00;;;4.80;99.90;;;;;;4966424;28;20557;-58
2024/01/24 08:50:48;;;;;;;13.82;6.18;;;4.80;99.90;;;;;;4992775;28;20035;-58
2024/01/24 08:53:15;;;;;;;11.00;6.93;;;4.90;99.90;;;;;;4988111;28;20051;-59
2024/01/24 08:55:42;;;;;;;12.82;7.00;;;5.00;99.90;;;;;;4971441;28;20047;-59
2024/01/24 08:58:10;;;;;;;9.02;5.07;;;5.10;99.90;;;;;;4978219;28;20243;-59
2024/01/24 09:00:38;;;;;;;7.88;4.95;;;5.00;99.90;;;;;;4984398;28;20115;-59
2024/01/24 09:03:05;;;;;;;12.00;5.43;;;5.10;99.90;;;;;;4983917;28;20046;-59
2024/01/24 09:05:32;;;;;;;11.13;5.63;;;5.10;99.90;;;;;;4993131;28;20044;-59
2024/01/24 09:07:59;;;;;;;9.85;6.00;;;5.20;99.90;;;;;;4990506;28;20330;-59
2024/01/24 09:10:26;;;;;;;12.23;6.47;;;5.20;99.90;;;;;;4975937;28;20387;-59
2024/01/24 09:12:54;;;;;;;10.75;6.45;;;5.20;99.90;;;;;;4972897;28;20051;-59
2024/01/24 09:15:22;;;;;;;8.55;5.13;;;5.40;99.90;;;;;;4993821;28;20057;-59
2024/01/24 09:17:50;;;;;;;9.18;5.50;;;5.40;99.90;;;;;;4984796;28;20050;-58
2024/01/24 09:20:18;;;;;;;11.27;6.47;;;5.50;99.90;;;;;;4993618;28;20118;-57
2024/01/24 09:22:45;;;;;;;13.73;6.40;;;5.60;99.90;;;;;;4974248;28;20038;-59
2024/01/24 09:25:12;;;;;;;14.23;8.20;;;5.60;99.90;;;;;;4982694;28;20038;-59
2024/01/24 09:27:41;;;;;;;13.95;7.35;;;5.70;99.90;;;;;;4992940;28;20379;-59
2024/01/24 09:30:08;;;;;;;11.88;6.15;;;5.70;99.90;;;;;;4978062;28;20051;-58
2024/01/24 09:32:35;;;;;;;11.93;6.57;;;5.80;99.90;;;;;;4967049;28;20038;-59
2024/01/24 09:35:02;;;;;;;17.73;9.50;;;5.90;99.90;;;;;;4982943;28;20050;-57
2024/01/24 09:37:29;;;;;;;17.92;8.13;;;6.00;99.90;;;;;;4974070;28;20115;-59
2024/01/24 09:39:56;;;;;;;8.68;5.53;;;5.90;99.90;;;;;;4978408;28;20392;-59
2024/01/24 09:42:26;;;;;;;11.20;6.22;;;5.90;99.90;;;;;;4992591;28;20134;-58
2024/01/24 09:44:57;;;;;;;11.18;6.15;;;5.90;99.90;;;;;;4983117;28;20483;-59
2024/01/24 09:47:24;;;;;;;9.27;5.18;;;5.90;99.90;;;;;;4978294;28;20050;-59
2024/01/24 09:49:51;;;;;;;;;;;5.90;99.90;;;;;;4978503;28;20049;-59
2024/01/24 09:52:24;;;;;;;18.23;7.60;;;5.90;99.90;;;;;;4985663;28;20394;-59
2024/01/24 09:54:59;;;;;;;23.85;10.40;;;6.00;99.90;;;;;;4990885;28;20046;-57
2024/01/24 09:57:27;;;;;;;30.55;13.13;;;5.90;99.90;;;;;;4973946;28;20487;-59
2024/01/24 09:59:54;;;;;;;22.65;11.52;;;5.80;99.90;;;;;;4992349;28;20109;-58
2024/01/24 10:02:21;;;;;;;;;;;5.70;99.90;;;;;;4984185;28;20054;-59
2024/01/24 10:04:51;;;;;;;9.98;5.43;;;5.90;99.90;;;;;;4985874;28;19922;-59
2024/01/24 10:07:19;;;;;;;9.38;5.95;;;6.00;99.90;;;;;;4990790;28;20125;-59
2024/01/24 10:09:47;;;;;;;9.18;4.93;;;6.00;99.90;;;;;;4992327;28;20104;-58
2024/01/24 10:12:14;;;;;;;6.88;4.95;;;6.10;99.90;;;;;;4979691;28;20042;-59
2024/01/24 10:14:41;;;;;;;7.82;5.50;;;6.20;99.90;;;;;;4996454;28;20046;-59
2024/01/24 10:17:11;;;;;;;8.23;5.15;;;6.40;99.90;;;;;;4986385;28;20050;-59
2024/01/24 10:19:38;;;;;;;8.40;5.78;;;6.60;99.90;;;;;;4976213;28;20467;-59
2024/01/24 10:22:05;;;;;;;11.23;5.85;;;6.50;99.90;;;;;;4993944;28;20479;-59
2024/01/24 10:24:36;;;;;;;9.65;5.00;;;6.60;99.90;;;;;;4978480;28;20073;-59
2024/01/24 10:27:04;;;;;;;10.13;5.18;;;6.70;99.90;;;;;;4988884;28;20050;-59
2024/01/24 10:29:31;;;;;;;8.45;5.40;;;6.80;99.90;;;;;;4974663;28;20411;-58
2024/01/24 10:31:58;;;;;;;11.07;6.05;;;6.80;99.90;;;;;;4993767;28;20038;-60
2024/01/24 10:34:27;;;;;;;8.50;5.22;;;6.80;99.90;;;;;;4988339;28;20129;-58
2024/01/24 10:36:55;;;;;;;6.90;4.47;;;6.90;99.90;;;;;;4988150;28;20473;-59
2024/01/24 10:39:25;;;;;;;8.70;4.78;;;7.00;99.90;;;;;;4973990;28;20063;-59
2024/01/24 10:41:54;;;;;;;9.45;5.32;;;7.00;99.90;;;;;;4984941;28;20051;-60
2024/01/24 10:44:25;;;;;;;10.23;4.57;;;7.00;99.90;;;;;;4980266;28;20133;-59
2024/01/24 10:46:52;;;;;;;9.63;5.57;;;6.90;99.90;;;;;;4977807;28;20050;-57
2024/01/24 10:49:21;;;;;;;9.55;5.10;;;6.80;99.90;;;;;;4972981;28;20049;-59
2024/01/24 10:51:48;;;;;;;8.15;4.90;;;6.80;99.90;;;;;;4988588;28;20121;-59
2024/01/24 10:54:16;;;;;;;7.57;4.97;;;6.90;99.90;;;;;;4993335;28;20125;-59
2024/01/24 10:56:49;;;;;;;8.90;4.75;;;6.80;99.90;;;;;;4979309;28;20038;-58
2024/01/24 10:59:20;;;;;;;8.45;4.30;;;6.80;99.90;;;;;;4996464;28;20439;-59
2024/01/24 11:01:47;;;;;;;10.23;5.40;;;6.80;99.90;;;;;;4995991;28;20046;-60
2024/01/24 11:04:19;;;;;;;;;;;6.90;99.90;;;;;;4972185;28;20038;-60
2024/01/24 11:06:58;;;;;;;6.15;4.57;;;7.00;99.90;;;;;;4996253;28;19922;-59
2024/01/24 11:09:28;;;;;;;8.02;4.57;;;7.10;99.90;;;;;;4995988;28;20121;-59
2024/01/24 11:11:58;;;;;;;7.35;4.78;;;7.10;99.90;;;;;;4978829;28;20404;-59
2024/01/24 11:14:46;;;;;;;5.45;4.38;;;6.90;99.90;;;;;;4968204;28;20045;-59
2024/01/24 11:17:13;;;;;;;7.70;5.25;;;7.10;99.90;;;;;;4993568;28;20049;-59
2024/01/24 11:19:40;;;;;;;6.32;4.28;;;7.20;99.90;;;;;;4981793;28;20472;-59
2024/01/24 11:22:11;;;;;;;5.75;4.18;;;7.30;99.90;;;;;;4983066;28;20053;-60
2024/01/24 11:24:52;;;;;;;10.45;4.80;;;7.40;99.90;;;;;;4967573;28;20038;-58
2024/01/24 11:27:37;;;;;;;6.82;4.47;;;7.50;99.90;;;;;;4984390;28;20049;-59
2024/01/24 11:30:06;;;;;;;7.20;4.13;;;7.50;99.90;;;;;;4984478;28;20130;-59
2024/01/24 11:32:46;;;;;;;;;;;7.50;99.90;;;;;;4971025;28;20492;-60
2024/01/24 11:35:41;;;;;;;10.65;5.28;;;7.70;99.90;;;;;;4978752;28;19922;-58
2024/01/24 11:38:16;;;;;;;9.18;6.13;;;7.70;99.90;;;;;;4990987;28;20117;-59
2024/01/24 11:40:59;;;;;;;10.88;6.78;;;7.60;99.90;;;;;;4985595;28;20523;-59
2024/01/24 11:43:27;;;;;;;11.13;7.32;;;7.20;99.90;;;;;;4994216;28;20034;-58
2024/01/24 11:46:04;;;;;;;10.68;7.05;;;7.10;99.90;;;;;;4964022;28;20111;-60
2024/01/24 11:48:33;;;;;;;13.98;7.10;;;7.20;99.90;;;;;;4980240;28;20039;-59
2024/01/24 11:51:11;;;;;;;12.23;7.00;;;7.30;99.90;;;;;;4986211;28;20046;-60
2024/01/24 11:53:38;;;;;;;12.73;5.78;;;7.30;99.90;;;;;;4985840;28;20555;-59
2024/01/24 11:56:07;;;;;;;13.25;7.43;;;7.40;99.90;;;;;;4989526;28;20065;-59
2024/01/24 11:58:34;;;;;;;12.90;7.63;;;7.50;99.90;;;;;;4985779;28;20045;-59
2024/01/24 12:01:03;;;;;;;9.32;5.82;;;7.50;99.90;;;;;;4993622;28;20053;-60
2024/01/24 12:03:30;;;;;;;21.58;11.15;;;7.70;99.90;;;;;;4967275;28;20050;-59
2024/01/24 12:05:58;;;;;;;13.75;7.45;;;7.60;99.90;;;;;;4983205;28;20051;-59
2024/01/24 12:08:27;;;;;;;32.33;18.08;;;7.60;99.90;;;;;;4994229;28;20038;-59
2024/01/24 12:10:54;;;;;;;23.42;12.70;;;7.70;99.90;;;;;;4992734;28;20042;-59
2024/01/24 12:13:23;;;;;;;25.40;13.18;;;7.90;99.90;;;;;;4993079;28;20089;-59
2024/01/24 12:15:53;;;;;;;26.98;15.60;;;8.00;99.90;;;;;;4985863;28;20428;-60
2024/01/24 12:18:19;;;;;;;18.95;13.02;;;8.10;99.90;;;;;;4977468;28;20035;-59
2024/01/24 12:20:49;;;;;;;15.07;9.52;;;8.20;99.90;;;;;;4987755;28;20034;-59
2024/01/24 12:23:18;;;;;;;13.45;8.43;;;8.20;99.90;;;;;;4994242;28;20042;-59
2024/01/24 12:25:46;;;;;;;16.75;9.30;;;8.30;99.90;;;;;;4995240;28;20491;-59
2024/01/24 12:28:14;;;;;;;13.75;7.22;;;8.40;99.90;;;;;;4976869;28;20046;-60
2024/01/24 12:30:47;;;;;;;10.18;6.70;;;8.40;99.90;;;;;;4970085;28;20114;-59
2024/01/24 12:33:16;;;;;;;11.07;5.90;;;8.60;99.90;;;;;;4984107;28;20499;-60
2024/01/24 12:35:46;;;;;;;10.23;5.95;;;8.80;99.90;;;;;;4994793;28;20102;-58
2024/01/24 12:38:15;;;;;;;9.50;6.28;;;9.00;99.90;;;;;;4971634;28;20050;-60
2024/01/24 12:40:53;;;;;;;12.13;6.00;;;9.20;99.90;;;;;;4994955;28;20042;-60
2024/01/24 12:43:22;;;;;;;11.38;5.40;;;9.00;99.90;;;;;;4994089;28;20506;-59
2024/01/24 12:45:51;;;;;;;9.45;5.07;;;9.20;99.90;;;;;;4988322;28;20039;-59
2024/01/24 12:48:19;;;;;;;7.05;4.45;;;9.50;99.90;;;;;;4978205;28;20101;-59
2024/01/24 12:50:50;;;;;;;10.48;5.88;;;9.60;99.90;;;;;;4994927;28;20053;-60
2024/01/24 12:53:19;;;;;;;8.98;4.70;;;9.70;99.90;;;;;;4993620;28;20050;-60
2024/01/24 12:55:46;;;;;;;9.20;4.97;;;9.70;99.90;;;;;;4978164;28;20484;-60
2024/01/24 12:58:12;;;;;;;9.40;5.20;;;9.90;99.90;;;;;;4989923;28;20061;-59
2024/01/24 13:00:39;;;;;;;8.05;4.50;;;9.90;99.90;;;;;;4980757;28;20042;-59